Terminal Aerodrome Forecast
Issued by NWS San Angelo, TX

Home | Current Version | Previous Version | Text Only | Print | Product List | Glossary On
Versions: 1 2 3 4 5 6 7 8 9 10 11 12
000
FTUS44 KSJT 301700
TAFABI
TAF
KABI 301720Z 3018/0118 17012G19KT P6SM SCT050
     FM010000 16010KT P6SM SCT100
     FM011400 20014G21KT P6SM FEW120=

USA.gov is the U.S. government's official web portal to all federal, state and local government web resources and services.